sensor_id;sensor_type;location;lat;lon;timestamp;P1;durP1;ratioP1;P2;durP2;ratioP2
21777;SDS011;11050;52.222;20.916;2023-11-21T00:00:18;29.00;;;14.40;;
21777;SDS011;11050;52.222;20.916;2023-11-21T00:02:45;28.40;;;15.10;;
21777;SDS011;11050;52.222;20.916;2023-11-21T00:05:11;27.37;;;14.13;;
21777;SDS011;11050;52.222;20.916;2023-11-21T00:07:42;27.43;;;15.07;;
21777;SDS011;11050;52.222;20.916;2023-11-21T00:10:08;28.37;;;15.60;;
21777;SDS011;11050;52.222;20.916;2023-11-21T00:12:36;29.07;;;14.70;;
21777;SDS011;11050;52.222;20.916;2023-11-21T00:15:02;27.17;;;15.83;;
21777;SDS011;11050;52.222;20.916;2023-11-21T00:17:47;31.27;;;15.80;;
21777;SDS011;11050;52.222;20.916;2023-11-21T00:20:13;29.50;;;14.40;;
21777;SDS011;11050;52.222;20.916;2023-11-21T00:22:38;27.13;;;13.40;;
21777;SDS011;11050;52.222;20.916;2023-11-21T00:25:05;30.23;;;17.10;;
21777;SDS011;11050;52.222;20.916;2023-11-21T00:27:34;25.23;;;15.43;;
21777;SDS011;11050;52.222;20.916;2023-11-21T00:30:03;26.37;;;15.47;;
21777;SDS011;11050;52.222;20.916;2023-11-21T00:32:30;32.80;;;16.07;;
21777;SDS011;11050;52.222;20.916;2023-11-21T00:34:56;28.03;;;15.77;;
21777;SDS011;11050;52.222;20.916;2023-11-21T00:37:22;33.47;;;15.83;;
21777;SDS011;11050;52.222;20.916;2023-11-21T00:39:48;35.23;;;16.43;;
21777;SDS011;11050;52.222;20.916;2023-11-21T00:42:14;30.90;;;16.00;;
21777;SDS011;11050;52.222;20.916;2023-11-21T00:44:40;36.07;;;17.13;;
21777;SDS011;11050;52.222;20.916;2023-11-21T00:47:05;28.83;;;15.30;;
21777;SDS011;11050;52.222;20.916;2023-11-21T00:49:32;32.63;;;15.50;;
21777;SDS011;11050;52.222;20.916;2023-11-21T00:51:58;27.53;;;14.60;;
21777;SDS011;11050;52.222;20.916;2023-11-21T00:54:24;31.60;;;14.77;;
21777;SDS011;11050;52.222;20.916;2023-11-21T00:56:52;27.53;;;15.37;;
21777;SDS011;11050;52.222;20.916;2023-11-21T00:59:17;28.30;;;16.03;;
21777;SDS011;11050;52.222;20.916;2023-11-21T01:01:43;29.03;;;14.77;;
21777;SDS011;11050;52.222;20.916;2023-11-21T01:04:09;30.30;;;15.33;;
21777;SDS011;11050;52.222;20.916;2023-11-21T01:06:35;28.73;;;15.53;;
21777;SDS011;11050;52.222;20.916;2023-11-21T01:09:01;28.47;;;14.60;;
21777;SDS011;11050;52.222;20.916;2023-11-21T01:11:32;30.07;;;16.03;;
21777;SDS011;11050;52.222;20.916;2023-11-21T01:14:01;31.20;;;16.70;;
21777;SDS011;11050;52.222;20.916;2023-11-21T01:16:28;30.37;;;15.90;;
21777;SDS011;11050;52.222;20.916;2023-11-21T01:18:54;25.37;;;14.47;;
21777;SDS011;11050;52.222;20.916;2023-11-21T01:21:20;30.67;;;15.63;;
21777;SDS011;11050;52.222;20.916;2023-11-21T01:23:45;27.90;;;13.87;;
21777;SDS011;11050;52.222;20.916;2023-11-21T01:26:12;28.27;;;15.07;;
21777;SDS011;11050;52.222;20.916;2023-11-21T01:28:38;27.30;;;14.40;;
21777;SDS011;11050;52.222;20.916;2023-11-21T01:31:04;29.67;;;14.93;;
21777;SDS011;11050;52.222;20.916;2023-11-21T01:33:29;29.53;;;14.60;;
21777;SDS011;11050;52.222;20.916;2023-11-21T01:35:55;30.87;;;16.27;;
21777;SDS011;11050;52.222;20.916;2023-11-21T01:38:21;25.43;;;14.37;;
21777;SDS011;11050;52.222;20.916;2023-11-21T01:40:47;27.20;;;14.80;;
21777;SDS011;11050;52.222;20.916;2023-11-21T01:43:13;28.90;;;15.43;;
21777;SDS011;11050;52.222;20.916;2023-11-21T01:45:38;27.37;;;15.43;;
21777;SDS011;11050;52.222;20.916;2023-11-21T01:48:04;27.40;;;14.23;;
21777;SDS011;11050;52.222;20.916;2023-11-21T01:50:31;27.53;;;15.27;;
21777;SDS011;11050;52.222;20.916;2023-11-21T01:52:58;29.80;;;16.10;;
21777;SDS011;11050;52.222;20.916;2023-11-21T01:55:25;28.10;;;15.43;;
21777;SDS011;11050;52.222;20.916;2023-11-21T01:57:52;30.53;;;15.83;;
21777;SDS011;11050;52.222;20.916;2023-11-21T02:00:19;30.37;;;16.60;;
21777;SDS011;11050;52.222;20.916;2023-11-21T02:02:45;31.13;;;16.40;;
21777;SDS011;11050;52.222;20.916;2023-11-21T02:05:13;29.40;;;15.20;;
21777;SDS011;11050;52.222;20.916;2023-11-21T02:07:43;31.87;;;17.27;;
21777;SDS011;11050;52.222;20.916;2023-11-21T02:10:12;25.27;;;14.70;;
21777;SDS011;11050;52.222;20.916;2023-11-21T02:12:40;28.63;;;15.27;;
21777;SDS011;11050;52.222;20.916;2023-11-21T02:15:07;28.37;;;15.50;;
21777;SDS011;11050;52.222;20.916;2023-11-21T02:17:41;27.77;;;15.63;;
21777;SDS011;11050;52.222;20.916;2023-11-21T02:20:11;29.43;;;15.67;;
21777;SDS011;11050;52.222;20.916;2023-11-21T02:22:40;29.57;;;15.93;;
21777;SDS011;11050;52.222;20.916;2023-11-21T02:25:08;27.37;;;15.60;;
21777;SDS011;11050;52.222;20.916;2023-11-21T02:27:34;30.73;;;16.17;;
21777;SDS011;11050;52.222;20.916;2023-11-21T02:30:00;28.10;;;15.77;;
21777;SDS011;11050;52.222;20.916;2023-11-21T02:32:26;27.53;;;16.43;;
21777;SDS011;11050;52.222;20.916;2023-11-21T02:34:52;27.40;;;16.00;;
21777;SDS011;11050;52.222;20.916;2023-11-21T02:37:20;28.00;;;16.07;;
21777;SDS011;11050;52.222;20.916;2023-11-21T02:39:46;28.33;;;16.03;;
21777;SDS011;11050;52.222;20.916;2023-11-21T02:42:12;25.93;;;14.53;;
21777;SDS011;11050;52.222;20.916;2023-11-21T02:44:37;27.30;;;16.57;;
21777;SDS011;11050;52.222;20.916;2023-11-21T02:47:03;29.80;;;15.50;;
21777;SDS011;11050;52.222;20.916;2023-11-21T02:49:29;27.10;;;15.30;;
21777;SDS011;11050;52.222;20.916;2023-11-21T02:51:55;27.83;;;15.67;;
21777;SDS011;11050;52.222;20.916;2023-11-21T02:54:21;25.70;;;14.93;;
21777;SDS011;11050;52.222;20.916;2023-11-21T02:56:47;25.97;;;14.93;;
21777;SDS011;11050;52.222;20.916;2023-11-21T02:59:14;28.63;;;15.53;;
21777;SDS011;11050;52.222;20.916;2023-11-21T03:01:41;26.00;;;15.07;;
21777;SDS011;11050;52.222;20.916;2023-11-21T03:04:06;30.67;;;15.17;;
21777;SDS011;11050;52.222;20.916;2023-11-21T03:06:32;25.07;;;14.33;;
21777;SDS011;11050;52.222;20.916;2023-11-21T03:08:58;24.87;;;14.07;;
21777;SDS011;11050;52.222;20.916;2023-11-21T03:11:24;28.93;;;15.67;;
21777;SDS011;11050;52.222;20.916;2023-11-21T03:13:50;27.30;;;16.43;;
21777;SDS011;11050;52.222;20.916;2023-11-21T03:16:16;26.07;;;15.97;;
21777;SDS011;11050;52.222;20.916;2023-11-21T03:18:42;26.57;;;14.43;;
21777;SDS011;11050;52.222;20.916;2023-11-21T03:21:07;25.27;;;14.77;;
21777;SDS011;11050;52.222;20.916;2023-11-21T03:23:36;30.07;;;15.67;;
21777;SDS011;11050;52.222;20.916;2023-11-21T03:26:03;29.17;;;15.70;;
21777;SDS011;11050;52.222;20.916;2023-11-21T03:28:29;28.57;;;15.30;;
21777;SDS011;11050;52.222;20.916;2023-11-21T03:30:57;26.40;;;14.93;;
21777;SDS011;11050;52.222;20.916;2023-11-21T03:33:23;25.63;;;14.10;;
21777;SDS011;11050;52.222;20.916;2023-11-21T03:35:49;27.20;;;14.83;;
21777;SDS011;11050;52.222;20.916;2023-11-21T03:38:14;30.53;;;16.63;;
21777;SDS011;11050;52.222;20.916;2023-11-21T03:40:41;26.83;;;15.77;;
21777;SDS011;11050;52.222;20.916;2023-11-21T03:43:07;30.03;;;15.33;;
21777;SDS011;11050;52.222;20.916;2023-11-21T03:45:32;29.17;;;14.83;;
21777;SDS011;11050;52.222;20.916;2023-11-21T03:47:58;29.57;;;15.37;;
21777;SDS011;11050;52.222;20.916;2023-11-21T03:50:26;31.17;;;16.23;;
21777;SDS011;11050;52.222;20.916;2023-11-21T03:52:54;28.20;;;15.87;;
21777;SDS011;11050;52.222;20.916;2023-11-21T03:55:19;29.70;;;15.63;;
21777;SDS011;11050;52.222;20.916;2023-11-21T03:57:45;28.37;;;14.40;;
21777;SDS011;11050;52.222;20.916;2023-11-21T04:00:11;26.93;;;15.67;;
21777;SDS011;11050;52.222;20.916;2023-11-21T04:02:37;30.33;;;14.77;;
21777;SDS011;11050;52.222;20.916;2023-11-21T04:05:04;27.83;;;14.83;;
21777;SDS011;11050;52.222;20.916;2023-11-21T04:07:32;24.53;;;13.90;;
21777;SDS011;11050;52.222;20.916;2023-11-21T04:09:59;22.87;;;13.27;;
21777;SDS011;11050;52.222;20.916;2023-11-21T04:12:25;24.37;;;13.13;;
21777;SDS011;11050;52.222;20.916;2023-11-21T04:14:50;22.53;;;13.13;;
21777;SDS011;11050;52.222;20.916;2023-11-21T04:17:19;22.87;;;12.73;;
21777;SDS011;11050;52.222;20.916;2023-11-21T04:19:45;23.07;;;13.63;;
21777;SDS011;11050;52.222;20.916;2023-11-21T04:22:11;19.53;;;11.43;;
21777;SDS011;11050;52.222;20.916;2023-11-21T04:24:37;20.23;;;12.67;;
21777;SDS011;11050;52.222;20.916;2023-11-21T04:27:03;18.80;;;12.27;;
21777;SDS011;11050;52.222;20.916;2023-11-21T04:29:28;23.17;;;12.13;;
21777;SDS011;11050;52.222;20.916;2023-11-21T04:31:54;21.37;;;12.27;;
21777;SDS011;11050;52.222;20.916;2023-11-21T04:34:20;20.53;;;11.60;;
21777;SDS011;11050;52.222;20.916;2023-11-21T04:36:46;21.27;;;11.97;;
21777;SDS011;11050;52.222;20.916;2023-11-21T04:39:11;22.07;;;11.77;;
21777;SDS011;11050;52.222;20.916;2023-11-21T04:41:37;19.87;;;11.03;;
21777;SDS011;11050;52.222;20.916;2023-11-21T04:44:04;23.83;;;12.00;;
21777;SDS011;11050;52.222;20.916;2023-11-21T04:46:31;21.20;;;12.27;;
21777;SDS011;11050;52.222;20.916;2023-11-21T04:48:57;20.60;;;11.87;;
21777;SDS011;11050;52.222;20.916;2023-11-21T04:51:23;20.97;;;12.23;;
21777;SDS011;11050;52.222;20.916;2023-11-21T04:53:49;17.60;;;10.37;;
21777;SDS011;11050;52.222;20.916;2023-11-21T04:56:15;19.07;;;11.47;;
21777;SDS011;11050;52.222;20.916;2023-11-21T04:58:41;19.40;;;11.90;;
21777;SDS011;11050;52.222;20.916;2023-11-21T05:01:07;19.47;;;11.00;;
21777;SDS011;11050;52.222;20.916;2023-11-21T05:03:33;20.57;;;11.87;;
21777;SDS011;11050;52.222;20.916;2023-11-21T05:05:59;18.90;;;11.10;;
21777;SDS011;11050;52.222;20.916;2023-11-21T05:08:25;19.50;;;11.13;;
21777;SDS011;11050;52.222;20.916;2023-11-21T05:10:51;20.27;;;10.63;;
21777;SDS011;11050;52.222;20.916;2023-11-21T05:13:18;18.63;;;10.87;;
21777;SDS011;11050;52.222;20.916;2023-11-21T05:15:45;17.33;;;10.87;;
21777;SDS011;11050;52.222;20.916;2023-11-21T05:18:11;20.57;;;10.77;;
21777;SDS011;11050;52.222;20.916;2023-11-21T05:20:38;22.33;;;12.27;;
21777;SDS011;11050;52.222;20.916;2023-11-21T05:23:05;18.20;;;11.17;;
21777;SDS011;11050;52.222;20.916;2023-11-21T05:25:33;18.93;;;10.67;;
21777;SDS011;11050;52.222;20.916;2023-11-21T05:27:59;22.57;;;11.40;;
21777;SDS011;11050;52.222;20.916;2023-11-21T05:30:26;19.33;;;11.40;;
21777;SDS011;11050;52.222;20.916;2023-11-21T05:32:53;18.17;;;11.70;;
21777;SDS011;11050;52.222;20.916;2023-11-21T05:35:18;18.83;;;10.90;;
21777;SDS011;11050;52.222;20.916;2023-11-21T05:37:44;16.80;;;9.83;;
21777;SDS011;11050;52.222;20.916;2023-11-21T05:40:11;21.30;;;10.97;;
21777;SDS011;11050;52.222;20.916;2023-11-21T05:42:38;17.77;;;10.77;;
21777;SDS011;11050;52.222;20.916;2023-11-21T05:45:06;19.50;;;10.17;;
21777;SDS011;11050;52.222;20.916;2023-11-21T05:47:43;16.90;;;9.17;;
21777;SDS011;11050;52.222;20.916;2023-11-21T05:50:11;15.93;;;9.07;;
21777;SDS011;11050;52.222;20.916;2023-11-21T05:52:40;14.60;;;9.17;;
21777;SDS011;11050;52.222;20.916;2023-11-21T05:55:08;16.53;;;10.43;;
21777;SDS011;11050;52.222;20.916;2023-11-21T05:57:34;16.33;;;9.83;;
21777;SDS011;11050;52.222;20.916;2023-11-21T06:00:05;16.80;;;9.63;;
21777;SDS011;11050;52.222;20.916;2023-11-21T06:02:43;19.20;;;10.23;;
21777;SDS011;11050;52.222;20.916;2023-11-21T06:05:09;18.33;;;10.10;;
21777;SDS011;11050;52.222;20.916;2023-11-21T06:07:35;16.97;;;10.10;;
21777;SDS011;11050;52.222;20.916;2023-11-21T06:10:05;15.20;;;9.53;;
21777;SDS011;11050;52.222;20.916;2023-11-21T06:12:36;17.93;;;9.73;;
21777;SDS011;11050;52.222;20.916;2023-11-21T06:15:03;15.43;;;10.10;;
21777;SDS011;11050;52.222;20.916;2023-11-21T06:17:30;17.67;;;9.77;;
21777;SDS011;11050;52.222;20.916;2023-11-21T06:19:56;15.73;;;9.33;;
21777;SDS011;11050;52.222;20.916;2023-11-21T06:22:22;16.50;;;9.20;;
21777;SDS011;11050;52.222;20.916;2023-11-21T06:24:48;15.67;;;9.00;;
21777;SDS011;11050;52.222;20.916;2023-11-21T06:27:13;15.63;;;9.30;;
21777;SDS011;11050;52.222;20.916;2023-11-21T06:29:39;15.80;;;9.53;;
21777;SDS011;11050;52.222;20.916;2023-11-21T06:32:07;17.87;;;9.40;;
21777;SDS011;11050;52.222;20.916;2023-11-21T06:34:33;15.77;;;9.37;;
21777;SDS011;11050;52.222;20.916;2023-11-21T06:36:59;14.80;;;9.20;;
21777;SDS011;11050;52.222;20.916;2023-11-21T06:39:24;14.50;;;9.23;;
21777;SDS011;11050;52.222;20.916;2023-11-21T06:41:50;15.73;;;8.97;;
21777;SDS011;11050;52.222;20.916;2023-11-21T06:44:15;16.20;;;9.00;;
21777;SDS011;11050;52.222;20.916;2023-11-21T06:46:41;14.23;;;9.17;;
21777;SDS011;11050;52.222;20.916;2023-11-21T06:49:07;16.83;;;9.77;;
21777;SDS011;11050;52.222;20.916;2023-11-21T06:51:33;13.63;;;8.77;;
21777;SDS011;11050;52.222;20.916;2023-11-21T06:53:59;13.93;;;9.07;;
21777;SDS011;11050;52.222;20.916;2023-11-21T06:56:25;15.37;;;9.37;;
21777;SDS011;11050;52.222;20.916;2023-11-21T06:58:50;16.10;;;10.17;;
21777;SDS011;11050;52.222;20.916;2023-11-21T07:01:19;14.77;;;9.10;;
21777;SDS011;11050;52.222;20.916;2023-11-21T07:03:45;15.70;;;9.13;;
21777;SDS011;11050;52.222;20.916;2023-11-21T07:06:10;15.40;;;8.90;;
21777;SDS011;11050;52.222;20.916;2023-11-21T07:08:36;17.03;;;9.90;;
21777;SDS011;11050;52.222;20.916;2023-11-21T07:11:03;17.27;;;9.73;;
21777;SDS011;11050;52.222;20.916;2023-11-21T07:13:29;17.37;;;10.60;;
21777;SDS011;11050;52.222;20.916;2023-11-21T07:15:59;16.10;;;9.70;;
21777;SDS011;11050;52.222;20.916;2023-11-21T07:18:25;15.07;;;9.23;;
21777;SDS011;11050;52.222;20.916;2023-11-21T07:20:50;16.50;;;9.77;;
21777;SDS011;11050;52.222;20.916;2023-11-21T07:23:17;22.70;;;9.90;;
21777;SDS011;11050;52.222;20.916;2023-11-21T07:25:42;18.57;;;9.83;;
21777;SDS011;11050;52.222;20.916;2023-11-21T07:28:08;17.57;;;9.93;;
21777;SDS011;11050;52.222;20.916;2023-11-21T07:30:34;18.10;;;10.00;;
21777;SDS011;11050;52.222;20.916;2023-11-21T07:33:00;16.33;;;10.27;;
21777;SDS011;11050;52.222;20.916;2023-11-21T07:35:26;19.00;;;10.43;;
21777;SDS011;11050;52.222;20.916;2023-11-21T07:37:51;15.80;;;9.60;;
21777;SDS011;11050;52.222;20.916;2023-11-21T07:40:17;19.43;;;11.30;;
21777;SDS011;11050;52.222;20.916;2023-11-21T07:42:43;19.90;;;10.20;;
21777;SDS011;11050;52.222;20.916;2023-11-21T07:45:09;20.07;;;10.37;;
21777;SDS011;11050;52.222;20.916;2023-11-21T07:47:34;18.43;;;10.50;;
21777;SDS011;11050;52.222;20.916;2023-11-21T07:50:02;17.80;;;10.23;;
21777;SDS011;11050;52.222;20.916;2023-11-21T07:52:29;19.20;;;10.17;;
21777;SDS011;11050;52.222;20.916;2023-11-21T07:54:55;17.23;;;9.57;;
21777;SDS011;11050;52.222;20.916;2023-11-21T07:57:21;17.40;;;10.00;;
21777;SDS011;11050;52.222;20.916;2023-11-21T07:59:47;17.73;;;9.93;;
21777;SDS011;11050;52.222;20.916;2023-11-21T08:02:12;15.37;;;9.00;;
21777;SDS011;11050;52.222;20.916;2023-11-21T08:04:38;14.07;;;9.00;;
21777;SDS011;11050;52.222;20.916;2023-11-21T08:07:04;15.90;;;9.37;;
21777;SDS011;11050;52.222;20.916;2023-11-21T08:09:29;15.33;;;9.10;;
21777;SDS011;11050;52.222;20.916;2023-11-21T08:11:56;16.07;;;8.67;;
21777;SDS011;11050;52.222;20.916;2023-11-21T08:14:21;16.80;;;8.60;;
21777;SDS011;11050;52.222;20.916;2023-11-21T08:16:50;18.43;;;9.70;;
21777;SDS011;11050;52.222;20.916;2023-11-21T08:19:16;14.97;;;9.10;;
21777;SDS011;11050;52.222;20.916;2023-11-21T08:21:43;20.27;;;10.93;;
21777;SDS011;11050;52.222;20.916;2023-11-21T08:24:09;18.20;;;10.20;;
21777;SDS011;11050;52.222;20.916;2023-11-21T08:26:36;19.97;;;10.70;;
21777;SDS011;11050;52.222;20.916;2023-11-21T08:29:02;17.80;;;10.23;;
21777;SDS011;11050;52.222;20.916;2023-11-21T08:31:28;17.33;;;11.00;;
21777;SDS011;11050;52.222;20.916;2023-11-21T08:33:54;18.17;;;10.23;;
21777;SDS011;11050;52.222;20.916;2023-11-21T08:36:21;15.20;;;9.87;;
21777;SDS011;11050;52.222;20.916;2023-11-21T08:38:49;17.90;;;10.57;;
21777;SDS011;11050;52.222;20.916;2023-11-21T08:41:17;17.37;;;11.27;;
21777;SDS011;11050;52.222;20.916;2023-11-21T08:43:46;18.77;;;11.10;;
21777;SDS011;11050;52.222;20.916;2023-11-21T08:46:15;19.10;;;10.60;;
21777;SDS011;11050;52.222;20.916;2023-11-21T08:48:44;17.80;;;10.17;;
21777;SDS011;11050;52.222;20.916;2023-11-21T08:51:11;16.17;;;9.77;;
21777;SDS011;11050;52.222;20.916;2023-11-21T08:53:37;20.77;;;11.70;;
21777;SDS011;11050;52.222;20.916;2023-11-21T08:56:03;19.03;;;11.37;;
21777;SDS011;11050;52.222;20.916;2023-11-21T08:58:30;17.37;;;10.50;;
21777;SDS011;11050;52.222;20.916;2023-11-21T09:00:57;22.37;;;10.83;;
21777;SDS011;11050;52.222;20.916;2023-11-21T09:03:23;18.30;;;10.83;;
21777;SDS011;11050;52.222;20.916;2023-11-21T09:05:49;19.17;;;11.03;;
21777;SDS011;11050;52.222;20.916;2023-11-21T09:08:16;21.13;;;11.43;;
21777;SDS011;11050;52.222;20.916;2023-11-21T09:10:41;21.20;;;12.77;;
21777;SDS011;11050;52.222;20.916;2023-11-21T09:13:08;19.30;;;11.27;;
21777;SDS011;11050;52.222;20.916;2023-11-21T09:15:35;21.63;;;12.57;;
21777;SDS011;11050;52.222;20.916;2023-11-21T09:18:00;18.73;;;10.73;;
21777;SDS011;11050;52.222;20.916;2023-11-21T09:20:26;20.90;;;12.20;;
21777;SDS011;11050;52.222;20.916;2023-11-21T09:22:53;17.60;;;11.67;;
21777;SDS011;11050;52.222;20.916;2023-11-21T09:25:20;18.80;;;11.70;;
21777;SDS011;11050;52.222;20.916;2023-11-21T09:27:46;24.57;;;12.27;;
21777;SDS011;11050;52.222;20.916;2023-11-21T09:30:12;24.67;;;12.90;;
21777;SDS011;11050;52.222;20.916;2023-11-21T09:32:39;18.73;;;12.83;;
21777;SDS011;11050;52.222;20.916;2023-11-21T09:35:05;21.60;;;12.60;;
21777;SDS011;11050;52.222;20.916;2023-11-21T09:37:34;24.43;;;13.03;;
21777;SDS011;11050;52.222;20.916;2023-11-21T09:40:03;21.57;;;12.47;;
21777;SDS011;11050;52.222;20.916;2023-11-21T09:42:32;20.53;;;11.73;;
21777;SDS011;11050;52.222;20.916;2023-11-21T09:45:17;19.53;;;11.90;;
21777;SDS011;11050;52.222;20.916;2023-11-21T09:47:54;24.40;;;11.70;;
21777;SDS011;11050;52.222;20.916;2023-11-21T09:50:21;21.23;;;12.07;;
21777;SDS011;11050;52.222;20.916;2023-11-21T09:53:00;19.20;;;11.60;;
21777;SDS011;11050;52.222;20.916;2023-11-21T09:55:46;18.23;;;11.60;;
21777;SDS011;11050;52.222;20.916;2023-11-21T09:58:19;21.73;;;12.47;;
21777;SDS011;11050;52.222;20.916;2023-11-21T10:00:48;17.10;;;10.60;;
21777;SDS011;11050;52.222;20.916;2023-11-21T10:03:17;19.50;;;12.23;;
21777;SDS011;11050;52.222;20.916;2023-11-21T10:05:43;21.53;;;11.83;;
21777;SDS011;11050;52.222;20.916;2023-11-21T10:08:15;20.50;;;11.87;;
21777;SDS011;11050;52.222;20.916;2023-11-21T10:10:44;17.40;;;11.07;;
21777;SDS011;11050;52.222;20.916;2023-11-21T10:13:14;17.33;;;11.60;;
21777;SDS011;11050;52.222;20.916;2023-11-21T10:15:44;22.10;;;11.17;;
21777;SDS011;11050;52.222;20.916;2023-11-21T10:18:15;17.33;;;11.03;;
21777;SDS011;11050;52.222;20.916;2023-11-21T10:20:41;16.30;;;10.67;;
21777;SDS011;11050;52.222;20.916;2023-11-21T10:23:08;18.00;;;11.70;;
21777;SDS011;11050;52.222;20.916;2023-11-21T10:25:36;18.13;;;10.73;;
21777;SDS011;11050;52.222;20.916;2023-11-21T10:28:02;19.10;;;11.33;;
21777;SDS011;11050;52.222;20.916;2023-11-21T10:30:36;21.50;;;11.70;;
21777;SDS011;11050;52.222;20.916;2023-11-21T10:33:06;17.87;;;10.73;;
21777;SDS011;11050;52.222;20.916;2023-11-21T10:35:39;21.27;;;11.97;;
21777;SDS011;11050;52.222;20.916;2023-11-21T10:38:12;20.10;;;11.40;;
21777;SDS011;11050;52.222;20.916;2023-11-21T10:40:40;17.50;;;11.73;;
21777;SDS011;11050;52.222;20.916;2023-11-21T10:43:07;21.13;;;12.37;;
21777;SDS011;11050;52.222;20.916;2023-11-21T10:45:34;22.53;;;11.13;;
21777;SDS011;11050;52.222;20.916;2023-11-21T10:48:06;20.93;;;12.53;;
21777;SDS011;11050;52.222;20.916;2023-11-21T10:50:33;21.67;;;11.60;;
21777;SDS011;11050;52.222;20.916;2023-11-21T10:53:01;18.40;;;11.53;;
21777;SDS011;11050;52.222;20.916;2023-11-21T10:55:29;18.40;;;11.20;;
21777;SDS011;11050;52.222;20.916;2023-11-21T10:57:58;19.10;;;11.67;;
21777;SDS011;11050;52.222;20.916;2023-11-21T11:00:27;21.57;;;12.80;;
21777;SDS011;11050;52.222;20.916;2023-11-21T11:02:54;21.83;;;13.30;;
21777;SDS011;11050;52.222;20.916;2023-11-21T11:05:21;24.43;;;13.33;;
21777;SDS011;11050;52.222;20.916;2023-11-21T11:07:55;21.13;;;12.60;;
21777;SDS011;11050;52.222;20.916;2023-11-21T11:10:26;21.73;;;11.80;;
21777;SDS011;11050;52.222;20.916;2023-11-21T11:12:56;18.83;;;12.37;;
21777;SDS011;11050;52.222;20.916;2023-11-21T11:15:24;21.63;;;13.33;;
21777;SDS011;11050;52.222;20.916;2023-11-21T11:17:51;23.23;;;12.97;;
21777;SDS011;11050;52.222;20.916;2023-11-21T11:20:22;21.87;;;12.47;;
21777;SDS011;11050;52.222;20.916;2023-11-21T11:22:59;21.90;;;12.63;;
21777;SDS011;11050;52.222;20.916;2023-11-21T11:29:07;19.27;;;12.20;;
21777;SDS011;11050;52.222;20.916;2023-11-21T11:32:08;23.90;;;12.33;;
21777;SDS011;11050;52.222;20.916;2023-11-21T11:35:01;20.30;;;12.37;;
21777;SDS011;11050;52.222;20.916;2023-11-21T11:37:41;17.83;;;11.60;;
21777;SDS011;11050;52.222;20.916;2023-11-21T11:40:10;23.90;;;13.23;;
21777;SDS011;11050;52.222;20.916;2023-11-21T11:42:37;19.27;;;12.27;;
21777;SDS011;11050;52.222;20.916;2023-11-21T11:45:05;21.80;;;12.67;;
21777;SDS011;11050;52.222;20.916;2023-11-21T11:47:44;22.97;;;12.77;;
21777;SDS011;11050;52.222;20.916;2023-11-21T11:50:13;22.80;;;12.33;;
21777;SDS011;11050;52.222;20.916;2023-11-21T11:52:48;23.00;;;12.93;;
21777;SDS011;11050;52.222;20.916;2023-11-21T11:55:18;20.40;;;13.47;;
21777;SDS011;11050;52.222;20.916;2023-11-21T11:57:49;21.53;;;13.37;;
21777;SDS011;11050;52.222;20.916;2023-11-21T12:00:22;20.60;;;11.97;;
21777;SDS011;11050;52.222;20.916;2023-11-21T12:03:02;22.57;;;12.33;;
21777;SDS011;11050;52.222;20.916;2023-11-21T12:05:33;18.87;;;12.13;;
21777;SDS011;11050;52.222;20.916;2023-11-21T12:08:04;17.13;;;11.17;;
21777;SDS011;11050;52.222;20.916;2023-11-21T12:10:32;24.33;;;13.00;;
21777;SDS011;11050;52.222;20.916;2023-11-21T12:13:06;19.07;;;11.80;;
21777;SDS011;11050;52.222;20.916;2023-11-21T12:15:38;21.73;;;12.30;;
21777;SDS011;11050;52.222;20.916;2023-11-21T12:18:05;21.07;;;12.40;;
21777;SDS011;11050;52.222;20.916;2023-11-21T12:20:32;22.40;;;13.00;;
21777;SDS011;11050;52.222;20.916;2023-11-21T12:23:03;22.73;;;12.70;;
21777;SDS011;11050;52.222;20.916;2023-11-21T12:25:31;20.57;;;12.83;;
21777;SDS011;11050;52.222;20.916;2023-11-21T12:27:58;19.63;;;11.57;;
21777;SDS011;11050;52.222;20.916;2023-11-21T12:30:31;20.53;;;12.97;;
21777;SDS011;11050;52.222;20.916;2023-11-21T12:33:03;20.57;;;12.70;;
21777;SDS011;11050;52.222;20.916;2023-11-21T12:35:32;22.57;;;12.80;;
21777;SDS011;11050;52.222;20.916;2023-11-21T12:38:00;22.13;;;12.33;;
21777;SDS011;11050;52.222;20.916;2023-11-21T12:40:30;24.93;;;13.30;;
21777;SDS011;11050;52.222;20.916;2023-11-21T12:42:56;18.03;;;11.30;;
21777;SDS011;11050;52.222;20.916;2023-11-21T12:45:25;20.77;;;13.23;;
21777;SDS011;11050;52.222;20.916;2023-11-21T12:47:56;20.67;;;12.70;;
21777;SDS011;11050;52.222;20.916;2023-11-21T12:50:35;23.20;;;12.87;;
21777;SDS011;11050;52.222;20.916;2023-11-21T12:53:12;19.97;;;12.23;;
21777;SDS011;11050;52.222;20.916;2023-11-21T12:55:38;20.53;;;12.43;;
21777;SDS011;11050;52.222;20.916;2023-11-21T12:58:05;26.10;;;13.43;;
21777;SDS011;11050;52.222;20.916;2023-11-21T13:00:42;19.13;;;12.30;;
21777;SDS011;11050;52.222;20.916;2023-11-21T13:03:11;24.43;;;13.83;;
21777;SDS011;11050;52.222;20.916;2023-11-21T13:05:42;22.07;;;13.83;;
21777;SDS011;11050;52.222;20.916;2023-11-21T13:08:15;22.90;;;13.63;;
21777;SDS011;11050;52.222;20.916;2023-11-21T13:10:45;23.27;;;13.40;;
21777;SDS011;11050;52.222;20.916;2023-11-21T13:13:14;23.83;;;13.53;;
21777;SDS011;11050;52.222;20.916;2023-11-21T13:15:49;25.07;;;14.10;;
21777;SDS011;11050;52.222;20.916;2023-11-21T13:18:23;20.37;;;12.67;;
21777;SDS011;11050;52.222;20.916;2023-11-21T13:20:52;21.33;;;13.17;;
21777;SDS011;11050;52.222;20.916;2023-11-21T13:23:20;23.00;;;12.93;;
21777;SDS011;11050;52.222;20.916;2023-11-21T13:25:46;20.33;;;11.93;;
21777;SDS011;11050;52.222;20.916;2023-11-21T13:28:12;22.07;;;12.63;;
21777;SDS011;11050;52.222;20.916;2023-11-21T13:30:40;24.63;;;12.87;;
21777;SDS011;11050;52.222;20.916;2023-11-21T13:33:07;22.87;;;12.80;;
21777;SDS011;11050;52.222;20.916;2023-11-21T13:35:36;22.83;;;12.83;;
21777;SDS011;11050;52.222;20.916;2023-11-21T13:38:10;23.87;;;13.87;;
21777;SDS011;11050;52.222;20.916;2023-11-21T13:40:38;22.73;;;13.97;;
21777;SDS011;11050;52.222;20.916;2023-11-21T13:43:11;26.20;;;14.80;;
21777;SDS011;11050;52.222;20.916;2023-11-21T13:45:39;22.83;;;13.70;;
21777;SDS011;11050;52.222;20.916;2023-11-21T13:48:06;24.63;;;13.13;;
21777;SDS011;11050;52.222;20.916;2023-11-21T13:50:38;19.93;;;12.30;;
21777;SDS011;11050;52.222;20.916;2023-11-21T13:53:22;21.47;;;13.13;;
21777;SDS011;11050;52.222;20.916;2023-11-21T13:55:49;23.00;;;13.17;;
21777;SDS011;11050;52.222;20.916;2023-11-21T13:58:21;22.70;;;13.30;;
21777;SDS011;11050;52.222;20.916;2023-11-21T14:01:00;23.50;;;13.20;;
21777;SDS011;11050;52.222;20.916;2023-11-21T14:03:31;24.30;;;12.67;;
21777;SDS011;11050;52.222;20.916;2023-11-21T14:06:09;23.30;;;13.43;;
21777;SDS011;11050;52.222;20.916;2023-11-21T14:08:40;25.23;;;14.43;;
21777;SDS011;11050;52.222;20.916;2023-11-21T14:11:06;23.90;;;14.37;;
21777;SDS011;11050;52.222;20.916;2023-11-21T14:13:34;24.40;;;13.47;;
21777;SDS011;11050;52.222;20.916;2023-11-21T14:16:00;24.50;;;13.77;;
21777;SDS011;11050;52.222;20.916;2023-11-21T14:18:27;22.47;;;13.50;;